createdAt,value
2018-06-19T00:01:21.092Z,22.90
2018-06-19T00:03:56.038Z,22.90
2018-06-19T00:06:31.096Z,22.90
2018-06-19T00:09:07.631Z,22.90
2018-06-19T00:14:17.236Z,22.90
2018-06-19T00:16:52.948Z,22.90
2018-06-19T00:19:28.995Z,22.90
2018-06-19T00:22:03.963Z,22.90
2018-06-19T00:24:38.984Z,22.90
2018-06-19T00:27:14.048Z,22.90
2018-06-19T00:29:49.100Z,22.90
2018-06-19T00:32:24.161Z,22.90
2018-06-19T00:34:59.147Z,22.90
2018-06-19T00:37:34.125Z,22.80
2018-06-19T00:40:09.204Z,22.80
2018-06-19T00:42:44.250Z,22.80
2018-06-19T00:45:19.429Z,22.80
2018-06-19T00:47:54.508Z,22.80
2018-06-19T00:50:30.428Z,22.80
2018-06-19T00:53:05.565Z,22.90
2018-06-19T00:55:40.533Z,22.80
2018-06-19T00:58:15.647Z,22.80
2018-06-19T01:00:50.836Z,22.80
2018-06-19T01:03:25.835Z,22.90
2018-06-19T01:08:35.428Z,22.80
2018-06-19T01:11:10.501Z,22.80
2018-06-19T01:13:45.580Z,22.90
2018-06-19T01:16:20.687Z,22.90
2018-06-19T01:18:55.837Z,22.90
2018-06-19T01:21:31.042Z,22.90
2018-06-19T01:24:06.123Z,22.70
2018-06-19T01:26:41.228Z,22.80
2018-06-19T01:29:16.183Z,22.70
2018-06-19T01:31:51.236Z,22.70
2018-06-19T01:34:26.405Z,22.80
2018-06-19T01:37:01.554Z,22.80
2018-06-19T01:39:37.369Z,22.80
2018-06-19T01:42:12.524Z,22.80
2018-06-19T01:44:47.497Z,22.50
2018-06-19T01:47:22.692Z,22.50
2018-06-19T01:49:57.848Z,22.70
2018-06-19T01:52:32.914Z,22.50
2018-06-19T01:55:08.004Z,22.40
2018-06-19T01:57:42.999Z,22.50
2018-06-19T02:00:18.089Z,22.40
2018-06-19T02:02:53.195Z,22.60
2018-06-19T02:05:28.324Z,22.60
2018-06-19T02:08:04.056Z,22.70
2018-06-19T02:10:39.160Z,22.80
2018-06-19T02:13:14.292Z,22.60
2018-06-19T02:15:49.344Z,22.70
2018-06-19T02:18:24.447Z,22.40
2018-06-19T02:20:59.452Z,22.50
2018-06-19T02:23:34.564Z,22.50
2018-06-19T02:26:09.532Z,22.50
2018-06-19T02:28:44.580Z,22.20
2018-06-19T02:31:19.684Z,22.30
2018-06-19T02:33:54.742Z,22.50
2018-06-19T02:36:29.901Z,22.50
2018-06-19T02:39:07.669Z,22.70
2018-06-19T02:41:42.753Z,22.50
2018-06-19T02:44:17.889Z,22.60
2018-06-19T02:46:52.865Z,22.40
2018-06-19T02:49:27.895Z,22.40
2018-06-19T02:54:37.755Z,22.40
2018-06-19T02:57:12.752Z,22.60
2018-06-19T02:59:47.768Z,22.70
2018-06-19T03:02:22.775Z,22.60
2018-06-19T03:04:57.735Z,22.50
2018-06-19T03:07:32.841Z,22.50
2018-06-19T03:10:07.844Z,22.60
2018-06-19T03:12:42.992Z,22.50
2018-06-19T03:15:18.072Z,22.50
2018-06-19T03:17:53.159Z,22.60
2018-06-19T03:20:28.312Z,22.50
2018-06-19T03:23:03.352Z,22.40
2018-06-19T03:28:13.135Z,22.60
2018-06-19T03:30:48.152Z,22.60
2018-06-19T03:33:23.271Z,22.70
2018-06-19T03:35:58.227Z,22.70
2018-06-19T03:38:33.392Z,22.70
2018-06-19T03:41:08.435Z,22.80
2018-06-19T03:43:43.567Z,22.80
2018-06-19T03:46:18.624Z,22.80
2018-06-19T03:48:53.672Z,22.70
2018-06-19T03:51:28.845Z,22.60
2018-06-19T03:54:04.101Z,22.50
2018-06-19T03:56:39.112Z,22.50
2018-06-19T03:59:14.292Z,22.60
2018-06-19T04:01:49.264Z,22.70
2018-06-19T04:04:24.330Z,22.50
2018-06-19T04:06:59.448Z,22.40
2018-06-19T04:09:34.476Z,22.50
2018-06-19T04:12:09.664Z,22.30
2018-06-19T04:14:44.756Z,22.40
2018-06-19T04:17:24.564Z,22.50
2018-06-19T04:19:59.592Z,22.60
2018-06-19T04:22:34.668Z,22.50
2018-06-19T04:25:09.763Z,22.60
2018-06-19T04:27:44.768Z,22.50
2018-06-19T04:30:19.804Z,22.50
2018-06-19T04:32:54.823Z,22.50
2018-06-19T04:35:29.947Z,22.50
2018-06-19T04:38:05.004Z,22.40
2018-06-19T04:40:40.160Z,22.30
2018-06-19T04:43:15.169Z,22.40
2018-06-19T04:45:56.692Z,22.40
2018-06-19T04:48:32.152Z,22.50
2018-06-19T04:51:07.160Z,22.40
2018-06-19T04:53:42.116Z,22.50
2018-06-19T04:56:17.083Z,22.50
2018-06-19T04:58:52.045Z,22.40
2018-06-19T05:01:27.195Z,22.50
2018-06-19T05:04:02.216Z,22.30
2018-06-19T05:06:37.276Z,22.10
2018-06-19T05:09:13.664Z,22.30
2018-06-19T05:11:48.605Z,22.50
2018-06-19T05:14:23.527Z,22.50
2018-06-19T05:16:58.508Z,22.40
2018-06-19T05:19:33.508Z,22.40
2018-06-19T05:22:08.471Z,22.60
2018-06-19T05:24:43.876Z,22.40
2018-06-19T05:27:18.846Z,22.60
2018-06-19T05:29:53.827Z,22.60
2018-06-19T05:32:28.968Z,22.60
2018-06-19T05:35:04.013Z,22.50
2018-06-19T05:37:39.024Z,22.40
2018-06-19T05:40:14.131Z,22.30
2018-06-19T05:42:49.272Z,22.50
2018-06-19T05:45:24.277Z,22.40
2018-06-19T05:47:59.168Z,22.30
2018-06-19T05:50:34.336Z,22.40
2018-06-19T05:53:09.435Z,22.50
2018-06-19T05:55:44.592Z,22.30
2018-06-19T05:58:19.645Z,22.40
2018-06-19T06:00:54.664Z,22.30
2018-06-19T06:03:29.903Z,22.40
2018-06-19T06:06:05.101Z,20.10
2018-06-19T06:08:40.060Z,19.40
2018-06-19T06:11:15.171Z,19.00
2018-06-19T06:13:50.131Z,18.90
2018-06-19T06:16:25.379Z,18.90
2018-06-19T06:19:00.307Z,18.80
2018-06-19T06:21:35.309Z,18.50
2018-06-19T06:24:10.287Z,18.50
2018-06-19T06:26:45.261Z,18.60
2018-06-19T06:29:20.659Z,18.60
2018-06-19T06:31:55.685Z,18.50
2018-06-19T06:34:30.668Z,18.30
2018-06-19T06:37:05.863Z,18.40
2018-06-19T06:39:40.847Z,18.40
2018-06-19T06:42:15.859Z,18.00
2018-06-19T06:44:51.004Z,18.10
2018-06-19T06:47:26.076Z,18.20
2018-06-19T06:50:01.020Z,18.20
2018-06-19T06:52:36.104Z,18.40
2018-06-19T06:55:11.241Z,18.40
2018-06-19T06:57:46.284Z,18.10
2018-06-19T07:00:21.316Z,18.40
2018-06-19T07:02:56.404Z,18.70
2018-06-19T07:05:31.520Z,18.80
2018-06-19T07:08:06.499Z,18.80
2018-06-19T07:10:41.576Z,18.40
2018-06-19T07:13:16.496Z,18.70
2018-06-19T07:15:51.560Z,18.50
2018-06-19T07:18:26.740Z,19.10
2018-06-19T07:21:01.868Z,19.60
2018-06-19T07:23:36.936Z,19.50
2018-06-19T07:26:12.038Z,19.70
2018-06-19T07:28:46.928Z,19.10
2018-06-19T07:31:21.912Z,19.00
2018-06-19T07:36:31.692Z,19.50
2018-06-19T07:39:07.888Z,19.60
2018-06-19T07:41:42.912Z,19.40
2018-06-19T07:44:18.032Z,19.50
2018-06-19T07:46:53.295Z,19.70
2018-06-19T07:49:28.581Z,19.90
2018-06-19T07:52:03.484Z,19.60
2018-06-19T07:54:38.460Z,19.80
2018-06-19T07:57:13.603Z,19.50
2018-06-19T07:59:48.554Z,19.70
2018-06-19T08:02:23.512Z,20.00
2018-06-19T08:04:58.638Z,20.20
2018-06-19T08:07:33.660Z,20.10
2018-06-19T08:12:43.292Z,20.00
2018-06-19T08:15:18.461Z,20.00
2018-06-19T08:17:53.446Z,20.00
2018-06-19T08:20:28.392Z,20.20
2018-06-19T08:23:03.342Z,20.30
2018-06-19T08:25:38.444Z,20.50
2018-06-19T08:28:13.512Z,20.70
2018-06-19T08:30:48.528Z,20.60
2018-06-19T08:33:23.500Z,20.50
2018-06-19T08:35:58.682Z,20.30
2018-06-19T08:38:33.838Z,20.40
2018-06-19T08:41:08.936Z,20.00
2018-06-19T08:43:44.016Z,19.90
2018-06-19T08:46:18.996Z,19.80
2018-06-19T08:48:54.140Z,19.50
2018-06-19T08:51:29.142Z,19.60
2018-06-19T08:54:04.284Z,19.60
2018-06-19T08:56:39.447Z,19.50
2018-06-19T09:05:26.439Z,19.70
2018-06-19T09:08:01.544Z,20.00
2018-06-19T09:10:36.684Z,20.10
2018-06-19T09:13:11.660Z,20.30
2018-06-19T09:15:46.811Z,20.80
2018-06-19T09:18:21.860Z,21.00
2018-06-19T09:20:56.921Z,20.60
2018-06-19T09:23:32.028Z,20.60
2018-06-19T09:26:07.067Z,20.80
2018-06-19T09:28:42.240Z,20.40
2018-06-19T09:31:17.309Z,20.20
2018-06-19T09:33:52.616Z,20.20
2018-06-19T09:36:27.640Z,20.20
2018-06-19T09:39:02.664Z,20.10
2018-06-19T09:41:37.823Z,20.20
2018-06-19T09:44:12.740Z,20.50
2018-06-19T09:46:47.691Z,20.20
2018-06-19T09:49:22.664Z,20.30
2018-06-19T09:51:57.619Z,20.20
2018-06-19T09:54:32.864Z,20.40
2018-06-19T09:57:07.965Z,20.20
2018-06-19T09:59:42.912Z,20.00
2018-06-19T10:02:18.016Z,19.90
2018-06-19T10:04:53.123Z,20.00
2018-06-19T10:07:28.064Z,20.30
2018-06-19T10:10:03.240Z,20.00
2018-06-19T10:12:38.208Z,19.80
2018-06-19T10:15:13.172Z,20.00
2018-06-19T10:17:48.308Z,20.30
2018-06-19T10:20:23.432Z,20.40
2018-06-19T10:22:58.464Z,20.70
2018-06-19T10:25:33.572Z,20.50
2018-06-19T10:28:08.619Z,20.20
2018-06-19T10:30:43.588Z,20.10
2018-06-19T10:33:18.767Z,19.60
2018-06-19T10:35:53.893Z,19.90
2018-06-19T10:41:03.784Z,20.20
2018-06-19T10:43:38.907Z,20.50
2018-06-19T10:46:13.920Z,20.20
2018-06-19T10:48:49.021Z,20.20
2018-06-19T10:51:24.128Z,20.40
2018-06-19T10:53:59.297Z,20.40
2018-06-19T10:56:34.232Z,20.40
2018-06-19T10:59:09.304Z,20.60
2018-06-19T11:01:44.334Z,20.50
2018-06-19T11:04:19.484Z,20.70
2018-06-19T11:06:54.448Z,20.50
2018-06-19T11:09:29.523Z,20.70
2018-06-19T11:12:04.652Z,20.90
2018-06-19T11:14:39.656Z,21.20
2018-06-19T11:17:14.648Z,21.10
2018-06-19T11:19:50.253Z,20.80
2018-06-19T11:22:25.394Z,20.90
2018-06-19T11:25:00.328Z,21.10
2018-06-19T11:27:35.475Z,21.50
2018-06-19T11:32:45.367Z,21.70
2018-06-19T11:35:20.376Z,21.70
2018-06-19T11:37:56.568Z,21.70
2018-06-19T11:40:31.635Z,21.70
2018-06-19T11:43:06.708Z,21.90
2018-06-19T11:45:41.816Z,22.00
2018-06-19T11:48:17.036Z,21.60
2018-06-19T11:50:52.360Z,21.90
2018-06-19T11:53:27.697Z,22.10
2018-06-19T11:56:02.801Z,22.10
2018-06-19T11:58:38.164Z,21.90
2018-06-19T12:01:13.179Z,22.00
2018-06-19T12:03:48.919Z,22.00
2018-06-19T12:06:23.984Z,22.10
2018-06-19T12:08:58.954Z,21.70
2018-06-19T12:11:34.152Z,21.80
2018-06-19T12:14:10.090Z,22.00
2018-06-19T12:16:45.088Z,22.10
2018-06-19T12:19:20.246Z,22.10
2018-06-19T12:21:55.265Z,22.00
2018-06-19T12:27:05.873Z,22.20
2018-06-19T12:29:40.864Z,22.40
2018-06-19T12:32:16.010Z,22.40
2018-06-19T12:34:54.360Z,22.60
2018-06-19T12:37:29.565Z,22.70
2018-06-19T12:40:04.531Z,22.70
2018-06-19T12:42:39.663Z,22.50
2018-06-19T12:45:14.761Z,22.50
2018-06-19T12:47:49.905Z,22.50
2018-06-19T12:50:38.710Z,22.40
2018-06-19T12:53:25.245Z,22.40
2018-06-19T12:56:15.045Z,22.50
2018-06-19T12:58:50.100Z,22.60
2018-06-19T13:01:25.200Z,22.70
2018-06-19T13:04:11.799Z,22.50
2018-06-19T13:06:46.749Z,22.50
2018-06-19T13:09:21.951Z,22.50
2018-06-19T13:11:57.076Z,22.90
2018-06-19T13:14:37.543Z,23.00
2018-06-19T13:17:23.911Z,23.10
2018-06-19T13:20:10.321Z,23.20
2018-06-19T13:22:45.263Z,23.30
2018-06-19T13:25:20.315Z,23.30
2018-06-19T13:27:55.672Z,23.30
2018-06-19T13:30:42.082Z,23.30
2018-06-19T13:33:17.224Z,23.30
2018-06-19T13:35:52.423Z,23.40
2018-06-19T13:38:27.998Z,23.50
2018-06-19T13:41:22.460Z,23.50
2018-06-19T13:44:10.320Z,23.40
2018-06-19T13:46:45.385Z,23.60
2018-06-19T13:49:20.560Z,23.70
2018-06-19T13:51:55.555Z,23.70
2018-06-19T13:54:30.709Z,23.50
2018-06-19T13:57:17.195Z,23.50
2018-06-19T13:59:52.176Z,23.50
2018-06-19T14:02:27.188Z,23.60
2018-06-19T14:05:02.768Z,23.10
2018-06-19T14:07:46.012Z,23.10
2018-06-19T14:10:32.365Z,23.10
2018-06-19T14:13:07.464Z,23.10
2018-06-19T14:18:21.004Z,23.10
2018-06-19T14:20:56.092Z,23.10
2018-06-19T14:23:31.287Z,23.20
2018-06-19T14:26:06.404Z,23.10
2018-06-19T14:28:41.412Z,23.00
2018-06-19T14:31:16.344Z,23.10
2018-06-19T14:33:51.464Z,23.10
2018-06-19T14:36:26.487Z,23.00
2018-06-19T14:39:01.514Z,23.00
2018-06-19T14:41:36.604Z,23.20
2018-06-19T14:44:11.759Z,22.90
2018-06-19T14:46:46.824Z,23.10
2018-06-19T14:49:22.431Z,23.00
2018-06-19T14:51:57.631Z,22.90
2018-06-19T14:54:32.652Z,22.90
2018-06-19T14:57:07.600Z,23.00
2018-06-19T14:59:42.876Z,22.90
2018-06-19T15:04:52.668Z,22.60
2018-06-19T15:07:31.856Z,22.20
2018-06-19T15:10:07.807Z,22.30
2018-06-19T15:12:42.945Z,22.30
2018-06-19T15:15:18.135Z,22.40
2018-06-19T15:17:53.222Z,22.20
2018-06-19T15:20:28.159Z,22.10
2018-06-19T15:23:03.616Z,22.20
2018-06-19T15:25:38.635Z,22.40
2018-06-19T15:28:13.689Z,22.60
2018-06-19T15:30:48.701Z,22.60
2018-06-19T15:33:23.756Z,22.60
2018-06-19T15:35:58.896Z,22.50
2018-06-19T15:38:34.744Z,22.50
2018-06-19T15:41:09.840Z,22.40
2018-06-19T15:43:44.915Z,22.50
2018-06-19T15:46:19.986Z,22.70
2018-06-19T15:48:55.008Z,22.70
2018-06-19T15:51:30.290Z,22.70
2018-06-19T15:54:05.404Z,22.70
2018-06-19T15:56:40.372Z,22.70
2018-06-19T15:59:15.476Z,22.70
2018-06-19T16:01:50.559Z,22.70
2018-06-19T16:04:25.571Z,22.80
2018-06-19T16:07:00.554Z,22.80
2018-06-19T16:09:35.588Z,22.80
2018-06-19T16:12:10.660Z,22.70
2018-06-19T16:14:45.697Z,22.70
2018-06-19T16:17:20.853Z,22.50
2018-06-19T16:19:55.834Z,22.60
2018-06-19T16:22:30.844Z,22.70
2018-06-19T16:25:06.151Z,22.70
2018-06-19T16:27:41.226Z,22.70
2018-06-19T16:30:16.308Z,22.60
2018-06-19T16:32:51.282Z,22.60
2018-06-19T16:35:26.292Z,22.50
2018-06-19T16:38:01.280Z,22.50
2018-06-19T16:40:36.311Z,22.50
2018-06-19T16:43:11.396Z,22.30
2018-06-19T16:45:46.588Z,22.30
2018-06-19T16:48:21.520Z,22.30
2018-06-19T16:50:56.580Z,22.10
2018-06-19T16:53:31.724Z,21.90
2018-06-19T16:56:06.795Z,21.90
2018-06-19T16:58:41.777Z,21.90
2018-06-19T17:01:16.841Z,22.10
2018-06-19T17:03:52.072Z,22.00
2018-06-19T17:06:27.002Z,22.00
2018-06-19T17:09:02.121Z,22.10
2018-06-19T17:11:37.206Z,22.10
2018-06-19T17:14:12.223Z,22.20
2018-06-19T17:16:47.204Z,22.00
2018-06-19T17:19:22.327Z,22.10
2018-06-19T17:21:57.276Z,22.00
2018-06-19T17:24:32.529Z,22.20
2018-06-19T17:27:07.477Z,22.10
2018-06-19T17:29:42.605Z,22.10
2018-06-19T17:32:17.555Z,22.10
2018-06-19T17:34:52.559Z,22.20
2018-06-19T17:37:27.695Z,22.00
2018-06-19T17:40:02.797Z,22.00
2018-06-19T17:42:37.875Z,22.10
2018-06-19T17:45:13.024Z,22.10
2018-06-19T17:47:48.152Z,22.20
2018-06-19T17:50:23.104Z,22.20
2018-06-19T17:52:58.220Z,22.20
2018-06-19T17:55:33.373Z,22.10
2018-06-19T17:58:09.648Z,22.00
2018-06-19T18:00:44.668Z,22.00
2018-06-19T18:03:19.729Z,21.80
2018-06-19T18:05:54.877Z,22.00
2018-06-19T18:08:29.882Z,22.00
2018-06-19T18:11:05.115Z,21.80
2018-06-19T18:13:40.073Z,21.80
2018-06-19T18:16:15.207Z,21.90
2018-06-19T18:18:50.303Z,22.00
2018-06-19T18:21:25.385Z,21.70
2018-06-19T18:24:00.381Z,21.70
2018-06-19T18:26:35.346Z,21.70
2018-06-19T18:29:10.343Z,21.70
2018-06-19T18:31:45.384Z,21.70
2018-06-19T18:34:20.524Z,21.60
2018-06-19T18:36:55.636Z,21.70
2018-06-19T18:39:32.632Z,21.60
2018-06-19T18:42:07.902Z,21.40
2018-06-19T18:44:43.069Z,21.50
2018-06-19T18:47:18.206Z,21.70
2018-06-19T18:49:53.299Z,21.70
2018-06-19T18:52:28.447Z,21.60
2018-06-19T18:55:03.665Z,21.60
2018-06-19T18:57:38.770Z,21.90
2018-06-19T19:00:13.862Z,21.90
2018-06-19T19:02:49.289Z,21.60
2018-06-19T19:05:24.299Z,21.40
2018-06-19T19:07:59.396Z,21.20
2018-06-19T19:10:39.708Z,21.10
2018-06-19T19:13:14.692Z,21.20
2018-06-19T19:15:55.013Z,21.10
2018-06-19T19:18:35.443Z,21.30
2018-06-19T19:21:10.465Z,21.30
2018-06-19T19:23:45.627Z,21.20
2018-06-19T19:26:26.157Z,21.20
2018-06-19T19:29:06.901Z,21.00
2018-06-19T19:31:41.818Z,21.00
2018-06-19T19:34:17.093Z,21.20
2018-06-19T19:36:57.791Z,21.90
2018-06-19T19:39:32.921Z,22.30
2018-06-19T19:42:08.008Z,22.50
2018-06-19T19:44:43.140Z,22.60
2018-06-19T19:47:23.640Z,22.70
2018-06-19T19:49:58.603Z,22.80
2018-06-19T19:52:33.688Z,22.90
2018-06-19T19:55:08.780Z,22.90
2018-06-19T19:57:49.304Z,23.00
2018-06-19T20:00:25.795Z,23.00
2018-06-19T20:03:00.723Z,23.10
2018-06-19T20:05:36.124Z,23.10
2018-06-19T20:08:11.216Z,23.20
2018-06-19T20:10:46.401Z,23.20
2018-06-19T20:13:21.423Z,23.20
2018-06-19T20:15:56.664Z,23.30
2018-06-19T20:18:31.584Z,23.30
2018-06-19T20:21:06.600Z,23.30
2018-06-19T20:23:42.129Z,23.30
2018-06-19T20:26:17.080Z,23.30
2018-06-19T20:28:52.409Z,23.30
2018-06-19T20:34:02.160Z,23.40
2018-06-19T20:36:37.228Z,23.40
2018-06-19T20:39:12.392Z,23.40
2018-06-19T20:41:47.448Z,23.40
2018-06-19T20:44:22.577Z,23.50
2018-06-19T20:46:57.531Z,23.50
2018-06-19T20:49:32.483Z,23.50
2018-06-19T20:52:07.964Z,23.50
2018-06-19T20:54:43.091Z,23.50
2018-06-19T20:57:18.171Z,23.50
2018-06-19T20:59:53.218Z,23.50
2018-06-19T21:02:28.188Z,23.50
2018-06-19T21:05:03.376Z,23.50
2018-06-19T21:07:38.491Z,23.50
2018-06-19T21:10:13.454Z,23.50
2018-06-19T21:12:48.389Z,23.50
2018-06-19T21:15:23.464Z,23.50
2018-06-19T21:17:58.546Z,23.60
2018-06-19T21:20:33.543Z,23.60
2018-06-19T21:23:08.639Z,23.60
2018-06-19T21:25:44.512Z,23.60
2018-06-19T21:28:19.600Z,23.60
2018-06-19T21:30:54.688Z,23.50
2018-06-19T21:33:29.713Z,23.60
2018-06-19T21:36:04.851Z,23.60
2018-06-19T21:38:39.908Z,23.60
2018-06-19T21:41:15.020Z,23.60
2018-06-19T21:43:50.004Z,23.60
2018-06-19T21:46:25.120Z,23.60
2018-06-19T21:49:00.300Z,23.60
2018-06-19T21:51:35.417Z,23.60
2018-06-19T21:54:10.448Z,23.60
2018-06-19T21:56:45.392Z,23.60
2018-06-19T21:59:20.456Z,23.60
2018-06-19T22:01:55.655Z,23.60
2018-06-19T22:04:30.608Z,23.60
2018-06-19T22:07:05.836Z,23.60
2018-06-19T22:09:40.815Z,23.60
2018-06-19T22:12:15.972Z,23.60
2018-06-19T22:14:51.035Z,23.60
2018-06-19T22:17:26.020Z,23.60
2018-06-19T22:20:01.027Z,23.60
2018-06-19T22:22:35.989Z,23.60
2018-06-19T22:25:10.948Z,23.60
2018-06-19T22:27:45.948Z,23.60
2018-06-19T22:30:20.916Z,23.60
2018-06-19T22:32:56.024Z,23.60
2018-06-19T22:35:31.076Z,23.60
2018-06-19T22:38:06.144Z,23.60
2018-06-19T22:40:41.352Z,23.60
2018-06-19T22:43:16.408Z,23.60
2018-06-19T22:45:51.472Z,23.60
2018-06-19T22:48:26.513Z,23.70
2018-06-19T22:51:01.648Z,23.60
2018-06-19T22:53:36.720Z,23.60
2018-06-19T22:56:11.775Z,23.60
2018-06-19T22:58:47.015Z,23.60
2018-06-19T23:01:21.992Z,23.60
2018-06-19T23:03:57.116Z,23.60
2018-06-19T23:06:32.200Z,23.60
2018-06-19T23:09:07.800Z,23.60
2018-06-19T23:11:42.816Z,23.60
2018-06-19T23:14:17.932Z,23.60
2018-06-19T23:16:53.018Z,23.60
2018-06-19T23:19:28.079Z,23.60
2018-06-19T23:22:03.300Z,23.60
2018-06-19T23:24:38.396Z,23.60
2018-06-19T23:27:13.397Z,23.60
2018-06-19T23:29:48.397Z,23.60
2018-06-19T23:32:23.511Z,23.60
2018-06-19T23:34:58.560Z,23.60
2018-06-19T23:37:33.664Z,23.60
2018-06-19T23:40:08.628Z,23.60
2018-06-19T23:42:43.580Z,23.60
2018-06-19T23:47:53.412Z,23.60
2018-06-19T23:50:28.505Z,23.60
2018-06-19T23:53:03.597Z,23.60
2018-06-19T23:55:38.541Z,23.60
2018-06-19T23:58:13.650Z,23.60
